sensor_id;sensor_type;location;lat;lon;timestamp;pressure;altitude;pressure_sealevel;temperature;humidity
58092;BME280;43896;48.178;11.578;2022-12-18T00:01:04;96835.13;;;-3.58;72.28
58092;BME280;43896;48.178;11.578;2022-12-18T00:03:35;96802.19;;;-3.73;71.48
58092;BME280;43896;48.178;11.578;2022-12-18T00:06:00;96859.94;;;-3.02;70.30
58092;BME280;43896;48.178;11.578;2022-12-18T00:08:29;96755.16;;;-3.50;69.84
58092;BME280;43896;48.178;11.578;2022-12-18T00:10:55;96870.66;;;-3.15;69.98
58092;BME280;43896;48.178;11.578;2022-12-18T00:13:20;96784.06;;;-3.42;70.31
58092;BME280;43896;48.178;11.578;2022-12-18T00:15:46;96839.56;;;-3.08;69.68
58092;BME280;43896;48.178;11.578;2022-12-18T00:18:11;96812.00;;;-3.31;69.79
58092;BME280;43896;48.178;11.578;2022-12-18T00:20:38;96857.25;;;-3.25;70.19
58092;BME280;43896;48.178;11.578;2022-12-18T00:23:05;96778.25;;;-4.64;71.24
58092;BME280;43896;48.178;11.578;2022-12-18T00:25:33;96864.78;;;-4.05;72.73
58092;BME280;43896;48.178;11.578;2022-12-18T00:27:59;96859.56;;;-4.34;74.23
58092;BME280;43896;48.178;11.578;2022-12-18T00:30:25;96833.47;;;-4.18;73.12
58092;BME280;43896;48.178;11.578;2022-12-18T00:32:50;96848.94;;;-3.90;72.61
58092;BME280;43896;48.178;11.578;2022-12-18T00:35:16;96872.28;;;-4.29;75.15
58092;BME280;43896;48.178;11.578;2022-12-18T00:37:41;96833.56;;;-3.91;72.34
58092;BME280;43896;48.178;11.578;2022-12-18T00:40:08;96901.66;;;-3.47;71.79
58092;BME280;43896;48.178;11.578;2022-12-18T00:42:34;96869.41;;;-4.18;73.56
58092;BME280;43896;48.178;11.578;2022-12-18T00:45:18;96888.13;;;-3.53;72.22
58092;BME280;43896;48.178;11.578;2022-12-18T00:47:43;96826.06;;;-3.99;71.76
58092;BME280;43896;48.178;11.578;2022-12-18T00:50:09;96816.97;;;-4.41;74.30
58092;BME280;43896;48.178;11.578;2022-12-18T00:52:40;96948.50;;;-3.09;71.77
58092;BME280;43896;48.178;11.578;2022-12-18T00:55:09;96870.28;;;-3.60;71.38
58092;BME280;43896;48.178;11.578;2022-12-18T00:57:34;96866.19;;;-3.65;71.07
58092;BME280;43896;48.178;11.578;2022-12-18T01:00:04;96893.88;;;-4.36;74.84
58092;BME280;43896;48.178;11.578;2022-12-18T01:02:30;96826.91;;;-4.60;74.30
58092;BME280;43896;48.178;11.578;2022-12-18T01:04:55;96870.81;;;-4.06;74.08
58092;BME280;43896;48.178;11.578;2022-12-18T01:07:23;96902.31;;;-3.40;71.87
58092;BME280;43896;48.178;11.578;2022-12-18T01:09:48;96912.25;;;-3.29;71.15
58092;BME280;43896;48.178;11.578;2022-12-18T01:12:14;96856.88;;;-4.29;73.63
58092;BME280;43896;48.178;11.578;2022-12-18T01:14:43;96873.78;;;-3.61;71.65
58092;BME280;43896;48.178;11.578;2022-12-18T01:17:08;96900.28;;;-3.30;70.59
58092;BME280;43896;48.178;11.578;2022-12-18T01:19:34;96814.06;;;-3.70;70.47
58092;BME280;43896;48.178;11.578;2022-12-18T01:22:02;96922.56;;;-3.03;69.71
58092;BME280;43896;48.178;11.578;2022-12-18T01:24:27;96840.81;;;-3.76;70.29
58092;BME280;43896;48.178;11.578;2022-12-18T01:26:55;96898.69;;;-3.34;70.00
58092;BME280;43896;48.178;11.578;2022-12-18T01:29:22;96871.63;;;-3.46;69.89
58092;BME280;43896;48.178;11.578;2022-12-18T01:31:48;96885.63;;;-3.56;69.82
58092;BME280;43896;48.178;11.578;2022-12-18T01:34:13;96870.66;;;-3.72;70.90
58092;BME280;43896;48.178;11.578;2022-12-18T01:36:39;96877.25;;;-3.63;71.10
58092;BME280;43896;48.178;11.578;2022-12-18T01:39:11;96952.69;;;-3.06;70.63
58092;BME280;43896;48.178;11.578;2022-12-18T01:41:37;96909.84;;;-3.35;70.49
58092;BME280;43896;48.178;11.578;2022-12-18T01:45:00;97006.16;;;-2.86;71.26
58092;BME280;43896;48.178;11.578;2022-12-18T01:49:55;96955.34;;;-3.97;74.34
58092;BME280;43896;48.178;11.578;2022-12-18T01:52:22;96868.19;;;-3.75;71.61
58092;BME280;43896;48.178;11.578;2022-12-18T01:54:50;97003.41;;;-2.80;71.49
58092;BME280;43896;48.178;11.578;2022-12-18T01:57:18;96913.41;;;-3.68;72.29
58092;BME280;43896;48.178;11.578;2022-12-18T01:59:49;96964.00;;;-3.10;71.26
58092;BME280;43896;48.178;11.578;2022-12-18T02:02:16;96956.63;;;-2.94;70.79
58092;BME280;43896;48.178;11.578;2022-12-18T02:04:42;96947.28;;;-3.25;71.64
58092;BME280;43896;48.178;11.578;2022-12-18T02:07:17;96996.63;;;-2.84;71.36
58092;BME280;43896;48.178;11.578;2022-12-18T02:10:03;96836.22;;;-3.66;70.78
58092;BME280;43896;48.178;11.578;2022-12-18T02:12:43;96874.88;;;-3.41;70.80
58092;BME280;43896;48.178;11.578;2022-12-18T02:15:15;96960.16;;;-2.97;71.25
58092;BME280;43896;48.178;11.578;2022-12-18T02:17:55;96915.75;;;-3.04;70.40
58092;BME280;43896;48.178;11.578;2022-12-18T02:23:06;96928.31;;;-2.94;70.22
58092;BME280;43896;48.178;11.578;2022-12-18T02:26:21;96877.50;;;-3.43;70.25
58092;BME280;43896;48.178;11.578;2022-12-18T02:29:02;96861.16;;;-3.98;71.18
58092;BME280;43896;48.178;11.578;2022-12-18T02:31:44;96982.25;;;-3.18;72.27
58092;BME280;43896;48.178;11.578;2022-12-18T02:34:11;96938.41;;;-3.73;73.49
58092;BME280;43896;48.178;11.578;2022-12-18T02:36:40;96873.31;;;-3.75;71.92
58092;BME280;43896;48.178;11.578;2022-12-18T02:39:10;96865.34;;;-3.66;71.26
58092;BME280;43896;48.178;11.578;2022-12-18T02:41:37;96979.56;;;-3.15;72.07
58092;BME280;43896;48.178;11.578;2022-12-18T02:44:09;96904.16;;;-3.75;72.19
58092;BME280;43896;48.178;11.578;2022-12-18T02:46:38;96901.56;;;-3.44;71.84
58092;BME280;43896;48.178;11.578;2022-12-18T02:57:43;96981.50;;;-2.67;69.79
58092;BME280;43896;48.178;11.578;2022-12-18T03:00:16;96968.53;;;-2.90;70.53
58092;BME280;43896;48.178;11.578;2022-12-18T03:05:16;96988.69;;;-3.05;71.99
58092;BME280;43896;48.178;11.578;2022-12-18T03:08:10;96957.34;;;-2.89;70.46
58092;BME280;43896;48.178;11.578;2022-12-18T03:10:47;96867.84;;;-3.63;70.86
58092;BME280;43896;48.178;11.578;2022-12-18T03:13:23;96986.47;;;-4.09;74.94
58092;BME280;43896;48.178;11.578;2022-12-18T03:15:56;96859.09;;;-4.17;72.78
58092;BME280;43896;48.178;11.578;2022-12-18T03:18:30;96906.81;;;-4.39;73.93
58092;BME280;43896;48.178;11.578;2022-12-18T03:21:00;96901.59;;;-4.36;74.62
58092;BME280;43896;48.178;11.578;2022-12-18T03:23:34;96927.44;;;-3.80;72.68
58092;BME280;43896;48.178;11.578;2022-12-18T03:26:03;96889.03;;;-3.56;72.54
58092;BME280;43896;48.178;11.578;2022-12-18T03:28:32;96885.84;;;-3.63;72.20
58092;BME280;43896;48.178;11.578;2022-12-18T03:31:00;96900.72;;;-3.74;72.59
58092;BME280;43896;48.178;11.578;2022-12-18T03:36:49;96976.13;;;-2.87;70.88
58092;BME280;43896;48.178;11.578;2022-12-18T03:39:14;96837.09;;;-3.66;70.84
58092;BME280;43896;48.178;11.578;2022-12-18T03:41:51;96990.25;;;-2.99;71.00
58092;BME280;43896;48.178;11.578;2022-12-18T03:44:29;96911.13;;;-3.21;71.13
58092;BME280;43896;48.178;11.578;2022-12-18T03:47:06;96979.78;;;-2.94;71.08
58092;BME280;43896;48.178;11.578;2022-12-18T03:49:41;96953.13;;;-3.20;72.03
58092;BME280;43896;48.178;11.578;2022-12-18T03:52:26;96940.69;;;-3.06;70.96
58092;BME280;43896;48.178;11.578;2022-12-18T03:54:54;96898.19;;;-3.17;70.25
58092;BME280;43896;48.178;11.578;2022-12-18T03:57:24;96968.84;;;-2.73;70.04
58092;BME280;43896;48.178;11.578;2022-12-18T03:59:56;96939.31;;;-2.89;70.52
58092;BME280;43896;48.178;11.578;2022-12-18T04:02:23;96880.56;;;-3.30;70.24
58092;BME280;43896;48.178;11.578;2022-12-18T04:04:56;96861.81;;;-3.33;69.94
58092;BME280;43896;48.178;11.578;2022-12-18T04:07:23;96869.03;;;-3.18;69.68
58092;BME280;43896;48.178;11.578;2022-12-18T04:09:50;96879.56;;;-3.54;70.75
58092;BME280;43896;48.178;11.578;2022-12-18T04:12:17;96875.72;;;-3.41;70.72
58092;BME280;43896;48.178;11.578;2022-12-18T04:14:43;96914.44;;;-3.17;70.33
58092;BME280;43896;48.178;11.578;2022-12-18T04:17:11;96989.47;;;-3.31;71.82
58092;BME280;43896;48.178;11.578;2022-12-18T04:19:36;96857.31;;;-3.55;71.52
58092;BME280;43896;48.178;11.578;2022-12-18T04:22:02;96944.50;;;-2.91;71.24
58092;BME280;43896;48.178;11.578;2022-12-18T04:24:27;96874.59;;;-3.32;70.38
58092;BME280;43896;48.178;11.578;2022-12-18T04:26:55;96851.47;;;-3.60;70.85
58092;BME280;43896;48.178;11.578;2022-12-18T04:29:20;96901.88;;;-3.26;70.65
58092;BME280;43896;48.178;11.578;2022-12-18T04:31:48;96861.28;;;-3.45;69.86
58092;BME280;43896;48.178;11.578;2022-12-18T04:34:24;96913.38;;;-3.38;70.94
58092;BME280;43896;48.178;11.578;2022-12-18T04:36:53;96929.06;;;-3.17;71.12
58092;BME280;43896;48.178;11.578;2022-12-18T04:39:20;96871.22;;;-3.61;71.05
58092;BME280;43896;48.178;11.578;2022-12-18T04:42:11;96911.13;;;-3.49;72.66
58092;BME280;43896;48.178;11.578;2022-12-18T04:44:56;96924.88;;;-3.22;71.55
58092;BME280;43896;48.178;11.578;2022-12-18T04:48:03;96905.28;;;-3.26;70.85
58092;BME280;43896;48.178;11.578;2022-12-18T04:53:42;96949.50;;;-3.13;71.10
58092;BME280;43896;48.178;11.578;2022-12-18T04:56:14;96910.25;;;-3.78;72.43
58092;BME280;43896;48.178;11.578;2022-12-18T04:58:46;96878.88;;;-3.59;70.99
58092;BME280;43896;48.178;11.578;2022-12-18T05:01:30;96963.81;;;-3.04;70.34
58092;BME280;43896;48.178;11.578;2022-12-18T05:04:08;96901.13;;;-3.88;71.78
58092;BME280;43896;48.178;11.578;2022-12-18T05:06:58;96953.88;;;-3.16;70.83
58092;BME280;43896;48.178;11.578;2022-12-18T05:09:23;96954.66;;;-3.13;70.48
58092;BME280;43896;48.178;11.578;2022-12-18T05:11:52;96950.59;;;-2.93;69.94
58092;BME280;43896;48.178;11.578;2022-12-18T05:18:00;96937.38;;;-3.09;69.80
58092;BME280;43896;48.178;11.578;2022-12-18T05:20:33;96937.72;;;-3.22;70.41
58092;BME280;43896;48.178;11.578;2022-12-18T05:24:10;97022.09;;;-2.47;69.68
58092;BME280;43896;48.178;11.578;2022-12-18T05:29:37;96916.63;;;-3.31;70.30
58092;BME280;43896;48.178;11.578;2022-12-18T05:32:03;96968.31;;;-2.84;69.69
58092;BME280;43896;48.178;11.578;2022-12-18T05:34:28;97042.56;;;-2.42;69.30
58092;BME280;43896;48.178;11.578;2022-12-18T05:36:54;96898.53;;;-3.28;69.05
58092;BME280;43896;48.178;11.578;2022-12-18T05:39:22;96969.38;;;-3.18;70.07
58092;BME280;43896;48.178;11.578;2022-12-18T05:41:50;96982.94;;;-2.85;70.13
58092;BME280;43896;48.178;11.578;2022-12-18T05:44:18;96972.78;;;-2.89;69.65
58092;BME280;43896;48.178;11.578;2022-12-18T05:46:43;96957.63;;;-2.98;70.12
58092;BME280;43896;48.178;11.578;2022-12-18T05:49:09;96986.13;;;-2.76;69.81
58092;BME280;43896;48.178;11.578;2022-12-18T05:51:34;96966.13;;;-2.96;69.99
58092;BME280;43896;48.178;11.578;2022-12-18T05:54:00;96948.28;;;-3.29;70.04
58092;BME280;43896;48.178;11.578;2022-12-18T05:56:25;96944.53;;;-3.79;70.51
58092;BME280;43896;48.178;11.578;2022-12-18T05:58:53;97054.09;;;-3.12;71.00
58092;BME280;43896;48.178;11.578;2022-12-18T06:04:28;97061.56;;;-3.34;73.32
58092;BME280;43896;48.178;11.578;2022-12-18T06:06:54;96914.13;;;-3.94;71.59
58092;BME280;43896;48.178;11.578;2022-12-18T06:09:19;96976.47;;;-3.56;71.71
58092;BME280;43896;48.178;11.578;2022-12-18T06:11:44;96932.66;;;-3.53;70.76
58092;BME280;43896;48.178;11.578;2022-12-18T06:14:10;96975.31;;;-3.16;70.15
58092;BME280;43896;48.178;11.578;2022-12-18T06:16:35;97005.41;;;-3.18;70.84
58092;BME280;43896;48.178;11.578;2022-12-18T06:19:03;96978.78;;;-3.17;70.27
58092;BME280;43896;48.178;11.578;2022-12-18T06:21:30;97006.03;;;-3.11;70.16
58092;BME280;43896;48.178;11.578;2022-12-18T06:23:55;96988.19;;;-3.77;72.72
58092;BME280;43896;48.178;11.578;2022-12-18T06:26:21;96949.69;;;-3.79;71.33
58092;BME280;43896;48.178;11.578;2022-12-18T06:28:47;96923.84;;;-4.04;71.69
58092;BME280;43896;48.178;11.578;2022-12-18T06:31:15;96978.25;;;-4.55;72.97
58092;BME280;43896;48.178;11.578;2022-12-18T06:33:41;96963.75;;;-3.92;72.09
58092;BME280;43896;48.178;11.578;2022-12-18T06:36:09;97010.94;;;-3.63;71.93
58092;BME280;43896;48.178;11.578;2022-12-18T06:38:35;96971.47;;;-4.25;71.97
58092;BME280;43896;48.178;11.578;2022-12-18T06:41:09;97043.44;;;-3.29;70.72
58092;BME280;43896;48.178;11.578;2022-12-18T06:43:35;96949.91;;;-3.86;70.70
58092;BME280;43896;48.178;11.578;2022-12-18T06:46:02;96961.91;;;-4.20;70.52
58092;BME280;43896;48.178;11.578;2022-12-18T06:48:28;96941.00;;;-4.06;70.99
58092;BME280;43896;48.178;11.578;2022-12-18T06:50:54;97019.16;;;-3.49;70.66
58092;BME280;43896;48.178;11.578;2022-12-18T06:53:19;96990.56;;;-3.69;71.03
58092;BME280;43896;48.178;11.578;2022-12-18T06:55:45;97034.78;;;-3.27;69.83
58092;BME280;43896;48.178;11.578;2022-12-18T06:58:10;97030.59;;;-3.61;69.60
58092;BME280;43896;48.178;11.578;2022-12-18T07:00:35;97000.84;;;-3.69;70.49
58092;BME280;43896;48.178;11.578;2022-12-18T07:03:01;96982.91;;;-3.71;69.84
58092;BME280;43896;48.178;11.578;2022-12-18T07:05:26;97005.69;;;-3.29;69.37
58092;BME280;43896;48.178;11.578;2022-12-18T07:07:51;97007.63;;;-3.37;69.57
58092;BME280;43896;48.178;11.578;2022-12-18T07:10:17;97064.38;;;-3.12;69.21
58092;BME280;43896;48.178;11.578;2022-12-18T07:12:42;97090.78;;;-3.05;69.69
58092;BME280;43896;48.178;11.578;2022-12-18T07:15:08;97064.06;;;-3.01;69.23
58092;BME280;43896;48.178;11.578;2022-12-18T07:17:33;97060.25;;;-3.17;69.88
58092;BME280;43896;48.178;11.578;2022-12-18T07:19:59;97122.41;;;-3.02;70.81
58092;BME280;43896;48.178;11.578;2022-12-18T07:22:27;97093.06;;;-3.26;70.88
58092;BME280;43896;48.178;11.578;2022-12-18T07:24:52;97089.19;;;-3.41;70.62
58092;BME280;43896;48.178;11.578;2022-12-18T07:27:18;97127.69;;;-3.70;72.90
58092;BME280;43896;48.178;11.578;2022-12-18T07:29:43;97137.88;;;-4.02;73.97
58092;BME280;43896;48.178;11.578;2022-12-18T07:32:09;97123.91;;;-4.26;74.23
58092;BME280;43896;48.178;11.578;2022-12-18T07:34:34;97064.63;;;-4.18;73.97
58092;BME280;43896;48.178;11.578;2022-12-18T07:36:59;97076.28;;;-3.39;71.38
58092;BME280;43896;48.178;11.578;2022-12-18T07:39:25;97090.75;;;-3.04;69.87
58092;BME280;43896;48.178;11.578;2022-12-18T07:41:58;97062.78;;;-3.47;69.35
58092;BME280;43896;48.178;11.578;2022-12-18T07:44:42;97111.53;;;-2.80;69.02
58092;BME280;43896;48.178;11.578;2022-12-18T07:47:08;97122.75;;;-2.83;69.43
58092;BME280;43896;48.178;11.578;2022-12-18T07:49:33;97123.31;;;-2.73;69.00
58092;BME280;43896;48.178;11.578;2022-12-18T07:51:58;97097.31;;;-2.93;69.21
58092;BME280;43896;48.178;11.578;2022-12-18T07:54:24;97096.06;;;-3.41;70.20
58092;BME280;43896;48.178;11.578;2022-12-18T07:56:51;97123.13;;;-2.96;69.01
58092;BME280;43896;48.178;11.578;2022-12-18T07:59:19;97017.19;;;-3.72;70.02
58092;BME280;43896;48.178;11.578;2022-12-18T08:01:45;97041.56;;;-3.54;70.57
58092;BME280;43896;48.178;11.578;2022-12-18T08:04:10;97125.53;;;-3.22;69.99
58092;BME280;43896;48.178;11.578;2022-12-18T08:06:35;97134.38;;;-3.32;71.27
58092;BME280;43896;48.178;11.578;2022-12-18T08:09:02;97072.72;;;-3.66;71.35
58092;BME280;43896;48.178;11.578;2022-12-18T08:11:36;97115.75;;;-3.09;70.13
58092;BME280;43896;48.178;11.578;2022-12-18T08:14:02;97049.06;;;-3.46;70.10
58092;BME280;43896;48.178;11.578;2022-12-18T08:16:27;97077.38;;;-3.16;68.73
58092;BME280;43896;48.178;11.578;2022-12-18T08:18:53;97080.13;;;-3.23;69.41
58092;BME280;43896;48.178;11.578;2022-12-18T08:21:29;97070.22;;;-3.36;69.15
58092;BME280;43896;48.178;11.578;2022-12-18T08:23:57;97139.56;;;-3.00;69.85
58092;BME280;43896;48.178;11.578;2022-12-18T08:26:25;97069.50;;;-3.10;68.77
58092;BME280;43896;48.178;11.578;2022-12-18T08:28:51;97091.41;;;-2.97;68.72
58092;BME280;43896;48.178;11.578;2022-12-18T08:31:17;97141.97;;;-2.65;69.10
58092;BME280;43896;48.178;11.578;2022-12-18T08:33:44;97065.50;;;-3.21;69.41
58092;BME280;43896;48.178;11.578;2022-12-18T08:36:09;97150.34;;;-2.58;68.73
58092;BME280;43896;48.178;11.578;2022-12-18T08:38:35;97156.28;;;-2.54;68.45
58092;BME280;43896;48.178;11.578;2022-12-18T08:41:19;97112.84;;;-2.96;69.24
58092;BME280;43896;48.178;11.578;2022-12-18T08:43:44;97142.50;;;-2.83;69.22
58092;BME280;43896;48.178;11.578;2022-12-18T08:46:33;97119.13;;;-2.77;68.70
58092;BME280;43896;48.178;11.578;2022-12-18T08:48:59;97143.81;;;-2.68;68.46
58092;BME280;43896;48.178;11.578;2022-12-18T08:51:25;97157.03;;;-2.51;69.08
58092;BME280;43896;48.178;11.578;2022-12-18T08:53:50;97153.97;;;-2.95;69.85
58092;BME280;43896;48.178;11.578;2022-12-18T08:56:16;97120.72;;;-2.71;68.72
58092;BME280;43896;48.178;11.578;2022-12-18T08:58:42;97114.69;;;-2.72;68.14
58092;BME280;43896;48.178;11.578;2022-12-18T09:01:09;97156.88;;;-2.76;69.40
58092;BME280;43896;48.178;11.578;2022-12-18T09:03:35;97164.84;;;-2.54;68.37
58092;BME280;43896;48.178;11.578;2022-12-18T09:06:27;97171.88;;;-2.31;67.59
58092;BME280;43896;48.178;11.578;2022-12-18T09:09:10;97173.78;;;-2.09;67.77
58092;BME280;43896;48.178;11.578;2022-12-18T09:11:36;97071.00;;;-2.73;67.45
58092;BME280;43896;48.178;11.578;2022-12-18T09:14:02;97121.28;;;-3.54;70.23
58092;BME280;43896;48.178;11.578;2022-12-18T09:16:28;97121.97;;;-3.82;73.12
58092;BME280;43896;48.178;11.578;2022-12-18T09:18:58;97067.81;;;-3.74;71.29
58092;BME280;43896;48.178;11.578;2022-12-18T09:21:26;97046.19;;;-3.35;69.00
58092;BME280;43896;48.178;11.578;2022-12-18T09:23:57;97169.84;;;-2.79;68.65
58092;BME280;43896;48.178;11.578;2022-12-18T09:26:24;97031.94;;;-3.47;68.29
58092;BME280;43896;48.178;11.578;2022-12-18T09:28:50;97159.88;;;-2.61;68.13
58092;BME280;43896;48.178;11.578;2022-12-18T09:31:17;97148.75;;;-2.92;69.73
58092;BME280;43896;48.178;11.578;2022-12-18T09:33:44;97063.06;;;-4.24;70.63
58092;BME280;43896;48.178;11.578;2022-12-18T09:36:13;97124.69;;;-3.22;70.64
58092;BME280;43896;48.178;11.578;2022-12-18T09:38:39;97073.53;;;-3.63;70.90
58092;BME280;43896;48.178;11.578;2022-12-18T09:43:57;97120.03;;;-3.08;68.99
58092;BME280;43896;48.178;11.578;2022-12-18T09:46:38;97008.06;;;-3.21;67.30
58092;BME280;43896;48.178;11.578;2022-12-18T09:49:07;97024.66;;;-3.31;67.02
58092;BME280;43896;48.178;11.578;2022-12-18T09:51:40;97106.47;;;-2.55;66.92
58092;BME280;43896;48.178;11.578;2022-12-18T09:54:20;97074.53;;;-2.77;67.33
58092;BME280;43896;48.178;11.578;2022-12-18T09:56:47;97106.19;;;-3.35;68.99
58092;BME280;43896;48.178;11.578;2022-12-18T09:59:30;97075.69;;;-3.17;68.46
58092;BME280;43896;48.178;11.578;2022-12-18T10:01:57;97070.88;;;-2.98;67.55
58092;BME280;43896;48.178;11.578;2022-12-18T10:04:23;97079.38;;;-2.96;67.53
58092;BME280;43896;48.178;11.578;2022-12-18T10:07:03;97145.16;;;-2.28;66.98
58092;BME280;43896;48.178;11.578;2022-12-18T10:09:37;97085.78;;;-2.80;67.02
58092;BME280;43896;48.178;11.578;2022-12-18T10:15:13;97128.69;;;-2.80;68.02
58092;BME280;43896;48.178;11.578;2022-12-18T10:20:46;97067.25;;;-2.63;67.53
58092;BME280;43896;48.178;11.578;2022-12-18T10:23:53;97132.03;;;-2.20;66.48
58092;BME280;43896;48.178;11.578;2022-12-18T10:26:22;97058.13;;;-3.64;69.26
58092;BME280;43896;48.178;11.578;2022-12-18T10:28:49;97048.28;;;-3.18;67.61
58092;BME280;43896;48.178;11.578;2022-12-18T10:31:22;97006.28;;;-3.19;66.72
58092;BME280;43896;48.178;11.578;2022-12-18T10:33:48;96990.19;;;-3.26;67.55
58092;BME280;43896;48.178;11.578;2022-12-18T10:36:14;97018.59;;;-3.60;68.43
58092;BME280;43896;48.178;11.578;2022-12-18T10:38:40;97001.50;;;-3.31;67.78
58092;BME280;43896;48.178;11.578;2022-12-18T10:41:25;96967.59;;;-3.16;66.97
58092;BME280;43896;48.178;11.578;2022-12-18T10:47:30;97058.50;;;-2.87;67.36
58092;BME280;43896;48.178;11.578;2022-12-18T10:49:55;97034.59;;;-2.91;66.98
58092;BME280;43896;48.178;11.578;2022-12-18T10:52:22;97069.19;;;-2.43;66.80
58092;BME280;43896;48.178;11.578;2022-12-18T10:54:53;97065.34;;;-2.86;67.62
58092;BME280;43896;48.178;11.578;2022-12-18T10:59:54;97059.94;;;-3.36;69.86
58092;BME280;43896;48.178;11.578;2022-12-18T11:02:34;97119.88;;;-2.43;68.10
58092;BME280;43896;48.178;11.578;2022-12-18T11:05:01;97054.16;;;-2.57;67.63
58092;BME280;43896;48.178;11.578;2022-12-18T11:07:47;97021.13;;;-2.71;67.43
58092;BME280;43896;48.178;11.578;2022-12-18T11:10:18;97128.97;;;-2.05;66.38
58092;BME280;43896;48.178;11.578;2022-12-18T11:12:44;97059.78;;;-2.44;66.62
58092;BME280;43896;48.178;11.578;2022-12-18T11:15:21;97090.00;;;-2.49;66.38
58092;BME280;43896;48.178;11.578;2022-12-18T11:17:50;97115.28;;;-2.34;67.16
58092;BME280;43896;48.178;11.578;2022-12-18T11:20:34;97021.31;;;-3.35;67.18
58092;BME280;43896;48.178;11.578;2022-12-18T11:23:03;97009.88;;;-4.20;69.00
58092;BME280;43896;48.178;11.578;2022-12-18T11:25:29;97092.03;;;-2.89;69.03
58092;BME280;43896;48.178;11.578;2022-12-18T11:27:58;97055.63;;;-2.76;67.62
58092;BME280;43896;48.178;11.578;2022-12-18T11:33:04;97016.09;;;-2.75;67.21
58092;BME280;43896;48.178;11.578;2022-12-18T11:35:47;97124.88;;;-2.11;67.08
58092;BME280;43896;48.178;11.578;2022-12-18T11:41:04;97125.38;;;-1.99;66.18
58092;BME280;43896;48.178;11.578;2022-12-18T11:43:40;97103.41;;;-2.11;66.99
58092;BME280;43896;48.178;11.578;2022-12-18T11:46:18;97010.25;;;-2.80;67.49
58092;BME280;43896;48.178;11.578;2022-12-18T11:49:15;97097.69;;;-2.77;68.41
58092;BME280;43896;48.178;11.578;2022-12-18T11:51:55;97078.84;;;-3.70;70.44
58092;BME280;43896;48.178;11.578;2022-12-18T11:54:23;97096.78;;;-3.05;69.28
58092;BME280;43896;48.178;11.578;2022-12-18T11:59:55;97026.41;;;-3.04;67.83
58092;BME280;43896;48.178;11.578;2022-12-18T12:05:31;97068.00;;;-2.59;67.13
58092;BME280;43896;48.178;11.578;2022-12-18T12:11:39;96964.97;;;-2.86;66.33
58092;BME280;43896;48.178;11.578;2022-12-18T12:17:30;97098.47;;;-3.04;69.79
58092;BME280;43896;48.178;11.578;2022-12-18T12:20:21;97034.22;;;-3.36;69.50
58092;BME280;43896;48.178;11.578;2022-12-18T12:26:06;97008.03;;;-3.19;68.52
58092;BME280;43896;48.178;11.578;2022-12-18T12:39:17;97018.13;;;-2.57;66.83
58092;BME280;43896;48.178;11.578;2022-12-18T12:41:48;96990.84;;;-2.91;66.86
58092;BME280;43896;48.178;11.578;2022-12-18T12:44:38;96993.38;;;-2.61;65.91
58092;BME280;43896;48.178;11.578;2022-12-18T12:47:21;96967.50;;;-2.85;66.18
58092;BME280;43896;48.178;11.578;2022-12-18T12:49:49;96989.72;;;-2.82;66.67
58092;BME280;43896;48.178;11.578;2022-12-18T12:52:23;96957.69;;;-3.28;67.17
58092;BME280;43896;48.178;11.578;2022-12-18T12:54:52;96986.78;;;-2.70;66.02
58092;BME280;43896;48.178;11.578;2022-12-18T12:57:31;97070.16;;;-2.46;66.33
58092;BME280;43896;48.178;11.578;2022-12-18T13:00:13;96984.13;;;-3.23;67.85
58092;BME280;43896;48.178;11.578;2022-12-18T13:02:44;97085.22;;;-2.61;67.44
58092;BME280;43896;48.178;11.578;2022-12-18T13:05:34;97087.31;;;-2.18;66.73
58092;BME280;43896;48.178;11.578;2022-12-18T13:08:06;97043.44;;;-2.43;65.98
58092;BME280;43896;48.178;11.578;2022-12-18T13:10:37;97066.44;;;-2.37;66.69
58092;BME280;43896;48.178;11.578;2022-12-18T13:13:10;97089.84;;;-2.16;67.00
58092;BME280;43896;48.178;11.578;2022-12-18T13:15:41;97083.59;;;-2.09;66.80
58092;BME280;43896;48.178;11.578;2022-12-18T13:20:50;97049.88;;;-2.30;66.13
58092;BME280;43896;48.178;11.578;2022-12-18T13:23:34;97036.75;;;-2.49;66.31
58092;BME280;43896;48.178;11.578;2022-12-18T13:29:00;97065.91;;;-2.20;66.21
58092;BME280;43896;48.178;11.578;2022-12-18T13:37:50;97092.69;;;-2.26;68.02
58092;BME280;43896;48.178;11.578;2022-12-18T13:50:42;97011.91;;;-2.51;67.05
58092;BME280;43896;48.178;11.578;2022-12-18T13:53:39;97093.72;;;-2.31;67.63
58092;BME280;43896;48.178;11.578;2022-12-18T13:56:05;96997.91;;;-2.69;67.85
58092;BME280;43896;48.178;11.578;2022-12-18T13:58:33;96969.94;;;-2.80;67.45
58092;BME280;43896;48.178;11.578;2022-12-18T14:00:59;96990.34;;;-2.75;67.54
58092;BME280;43896;48.178;11.578;2022-12-18T14:03:28;97023.09;;;-2.79;67.57
58092;BME280;43896;48.178;11.578;2022-12-18T14:06:17;97069.22;;;-2.45;67.97
58092;BME280;43896;48.178;11.578;2022-12-18T14:09:14;97003.00;;;-2.68;67.29
58092;BME280;43896;48.178;11.578;2022-12-18T14:15:38;96984.31;;;-3.61;70.07
58092;BME280;43896;48.178;11.578;2022-12-18T14:18:25;96941.19;;;-3.51;68.69
58092;BME280;43896;48.178;11.578;2022-12-18T14:28:13;97076.78;;;-2.67;67.92
58092;BME280;43896;48.178;11.578;2022-12-18T14:30:44;97092.50;;;-2.48;68.52
58092;BME280;43896;48.178;11.578;2022-12-18T14:33:11;97097.56;;;-2.45;68.84
58092;BME280;43896;48.178;11.578;2022-12-18T14:35:43;97054.25;;;-2.88;68.72
58092;BME280;43896;48.178;11.578;2022-12-18T14:41:11;97026.19;;;-2.68;67.30
58092;BME280;43896;48.178;11.578;2022-12-18T14:43:39;97004.44;;;-2.87;68.12
58092;BME280;43896;48.178;11.578;2022-12-18T14:49:34;96962.72;;;-3.55;69.35
58092;BME280;43896;48.178;11.578;2022-12-18T14:52:02;96960.47;;;-3.66;70.32
58092;BME280;43896;48.178;11.578;2022-12-18T14:54:28;96949.34;;;-3.36;69.29
58092;BME280;43896;48.178;11.578;2022-12-18T15:00:17;97024.13;;;-2.58;68.74
58092;BME280;43896;48.178;11.578;2022-12-18T15:02:46;97000.97;;;-2.85;68.81
58092;BME280;43896;48.178;11.578;2022-12-18T15:07:46;96978.34;;;-3.03;69.23
58092;BME280;43896;48.178;11.578;2022-12-18T15:15:44;97055.06;;;-2.86;69.84
58092;BME280;43896;48.178;11.578;2022-12-18T15:20:59;96962.06;;;-3.04;68.69
58092;BME280;43896;48.178;11.578;2022-12-18T15:23:54;97039.75;;;-2.91;69.18